sensor_id;sensor_type;location;lat;lon;timestamp;pressure;altitude;pressure_sealevel;temperature;humidity
28630;BME280;15817;42.130;24.762;2023-05-09T00:32:46;100231.13;;;14.91;100.00
28630;BME280;15817;42.130;24.762;2023-05-09T00:35:25;100231.91;;;14.99;100.00
28630;BME280;15817;42.130;24.762;2023-05-09T00:37:56;100222.28;;;14.87;100.00
28630;BME280;15817;42.130;24.762;2023-05-09T00:40:22;100233.06;;;14.84;100.00
28630;BME280;15817;42.130;24.762;2023-05-09T00:43:01;100228.78;;;14.74;100.00
28630;BME280;15817;42.130;24.762;2023-05-09T00:46:07;100236.03;;;14.66;100.00
28630;BME280;15817;42.130;24.762;2023-05-09T00:48:34;100233.25;;;14.73;100.00
28630;BME280;15817;42.130;24.762;2023-05-09T00:51:05;100249.06;;;14.87;100.00
28630;BME280;15817;42.130;24.762;2023-05-09T00:53:36;100243.56;;;14.96;100.00
28630;BME280;15817;42.130;24.762;2023-05-09T00:56:15;100237.28;;;14.97;100.00
28630;BME280;15817;42.130;24.762;2023-05-09T00:58:41;100248.78;;;15.02;100.00
28630;BME280;15817;42.130;24.762;2023-05-09T01:01:27;100237.47;;;14.87;100.00
28630;BME280;15817;42.130;24.762;2023-05-09T01:04:25;100242.91;;;14.82;100.00
28630;BME280;15817;42.130;24.762;2023-05-09T01:07:04;100256.19;;;14.88;100.00
28630;BME280;15817;42.130;24.762;2023-05-09T01:09:50;100246.41;;;14.87;100.00
28630;BME280;15817;42.130;24.762;2023-05-09T01:20:36;100259.84;;;14.82;100.00
28630;BME280;15817;42.130;24.762;2023-05-09T01:26:25;100264.59;;;14.65;100.00
28630;BME280;15817;42.130;24.762;2023-05-09T01:32:09;100257.56;;;14.60;100.00
28630;BME280;15817;42.130;24.762;2023-05-09T01:34:34;100267.25;;;14.65;100.00
28630;BME280;15817;42.130;24.762;2023-05-09T01:37:04;100256.63;;;14.62;100.00
28630;BME280;15817;42.130;24.762;2023-05-09T01:39:33;100251.44;;;14.52;100.00
28630;BME280;15817;42.130;24.762;2023-05-09T01:42:03;100248.69;;;14.55;100.00
28630;BME280;15817;42.130;24.762;2023-05-09T01:44:54;100250.47;;;14.56;100.00
28630;BME280;15817;42.130;24.762;2023-05-09T01:47:34;100252.50;;;14.41;100.00
28630;BME280;15817;42.130;24.762;2023-05-09T01:50:09;100255.19;;;14.38;100.00
28630;BME280;15817;42.130;24.762;2023-05-09T01:52:55;100258.66;;;14.45;100.00
28630;BME280;15817;42.130;24.762;2023-05-09T01:55:38;100266.59;;;14.53;100.00
28630;BME280;15817;42.130;24.762;2023-05-09T01:58:41;100258.81;;;14.33;100.00
28630;BME280;15817;42.130;24.762;2023-05-09T02:01:23;100264.94;;;14.44;100.00
28630;BME280;15817;42.130;24.762;2023-05-09T02:03:56;100265.88;;;14.38;100.00
28630;BME280;15817;42.130;24.762;2023-05-09T02:06:24;100274.81;;;14.40;100.00
28630;BME280;15817;42.130;24.762;2023-05-09T02:09:03;100264.94;;;14.42;100.00
28630;BME280;15817;42.130;24.762;2023-05-09T02:11:29;100273.75;;;14.52;100.00
28630;BME280;15817;42.130;24.762;2023-05-09T02:13:57;100275.72;;;14.36;100.00
28630;BME280;15817;42.130;24.762;2023-05-09T02:16:24;100274.28;;;14.14;100.00
28630;BME280;15817;42.130;24.762;2023-05-09T02:21:32;100273.22;;;14.24;100.00
28630;BME280;15817;42.130;24.762;2023-05-09T02:23:58;100277.66;;;14.27;100.00
28630;BME280;15817;42.130;24.762;2023-05-09T02:27:05;100283.97;;;14.20;100.00
28630;BME280;15817;42.130;24.762;2023-05-09T02:29:49;100278.53;;;14.27;100.00
28630;BME280;15817;42.130;24.762;2023-05-09T02:32:21;100272.38;;;14.21;100.00
28630;BME280;15817;42.130;24.762;2023-05-09T02:34:52;100274.09;;;14.26;100.00
28630;BME280;15817;42.130;24.762;2023-05-09T02:37:22;100282.94;;;14.31;100.00
28630;BME280;15817;42.130;24.762;2023-05-09T02:40:02;100289.25;;;14.27;100.00
28630;BME280;15817;42.130;24.762;2023-05-09T02:42:37;100285.66;;;14.28;100.00
28630;BME280;15817;42.130;24.762;2023-05-09T02:49:00;100283.00;;;14.28;100.00
28630;BME280;15817;42.130;24.762;2023-05-09T02:51:46;100302.53;;;14.33;100.00
28630;BME280;15817;42.130;24.762;2023-05-09T02:57:37;100308.78;;;14.32;100.00
28630;BME280;15817;42.130;24.762;2023-05-09T03:00:21;100291.91;;;14.27;100.00
28630;BME280;15817;42.130;24.762;2023-05-09T03:02:52;100297.34;;;14.21;100.00
28630;BME280;15817;42.130;24.762;2023-05-09T03:05:18;100300.00;;;14.23;100.00
28630;BME280;15817;42.130;24.762;2023-05-09T03:07:46;100293.84;;;14.18;100.00
28630;BME280;15817;42.130;24.762;2023-05-09T03:10:25;100292.88;;;14.22;100.00
28630;BME280;15817;42.130;24.762;2023-05-09T03:13:04;100304.63;;;14.10;100.00
28630;BME280;15817;42.130;24.762;2023-05-09T03:19:15;100305.47;;;14.13;100.00
28630;BME280;15817;42.130;24.762;2023-05-09T03:22:20;100312.59;;;14.14;100.00
28630;BME280;15817;42.130;24.762;2023-05-09T03:25:25;100319.00;;;14.01;100.00
28630;BME280;15817;42.130;24.762;2023-05-09T03:27:54;100325.25;;;14.03;100.00
28630;BME280;15817;42.130;24.762;2023-05-09T03:30:24;100311.88;;;14.03;100.00
28630;BME280;15817;42.130;24.762;2023-05-09T03:32:54;100314.47;;;14.08;100.00
28630;BME280;15817;42.130;24.762;2023-05-09T03:35:23;100334.91;;;14.15;100.00
28630;BME280;15817;42.130;24.762;2023-05-09T03:37:58;100328.66;;;14.13;100.00
28630;BME280;15817;42.130;24.762;2023-05-09T03:40:24;100326.09;;;14.05;100.00
28630;BME280;15817;42.130;24.762;2023-05-09T03:43:05;100328.03;;;13.93;100.00
28630;BME280;15817;42.130;24.762;2023-05-09T03:45:31;100331.50;;;13.99;100.00
28630;BME280;15817;42.130;24.762;2023-05-09T03:47:57;100338.72;;;13.94;100.00
28630;BME280;15817;42.130;24.762;2023-05-09T03:50:29;100336.03;;;13.96;100.00
28630;BME280;15817;42.130;24.762;2023-05-09T03:52:58;100336.88;;;13.98;100.00
28630;BME280;15817;42.130;24.762;2023-05-09T03:55:31;100335.16;;;13.95;100.00
28630;BME280;15817;42.130;24.762;2023-05-09T03:57:57;100327.97;;;13.97;100.00
28630;BME280;15817;42.130;24.762;2023-05-09T04:00:23;100340.38;;;14.06;100.00
28630;BME280;15817;42.130;24.762;2023-05-09T04:03:00;100345.72;;;14.04;100.00
28630;BME280;15817;42.130;24.762;2023-05-09T04:05:37;100338.59;;;14.06;100.00
28630;BME280;15817;42.130;24.762;2023-05-09T04:08:09;100336.78;;;14.07;100.00
28630;BME280;15817;42.130;24.762;2023-05-09T04:10:52;100333.28;;;14.02;100.00
28630;BME280;15817;42.130;24.762;2023-05-09T04:13:21;100350.13;;;14.08;100.00
28630;BME280;15817;42.130;24.762;2023-05-09T04:15:53;100342.97;;;14.09;100.00
28630;BME280;15817;42.130;24.762;2023-05-09T04:18:19;100335.94;;;14.02;100.00
28630;BME280;15817;42.130;24.762;2023-05-09T04:20:47;100343.88;;;14.08;100.00
28630;BME280;15817;42.130;24.762;2023-05-09T04:23:23;100339.38;;;14.11;100.00
28630;BME280;15817;42.130;24.762;2023-05-09T04:25:52;100347.41;;;14.11;100.00
28630;BME280;15817;42.130;24.762;2023-05-09T04:28:44;100355.44;;;14.11;100.00
28630;BME280;15817;42.130;24.762;2023-05-09T04:31:17;100343.03;;;14.06;100.00
28630;BME280;15817;42.130;24.762;2023-05-09T04:34:05;100355.50;;;14.07;100.00
28630;BME280;15817;42.130;24.762;2023-05-09T04:36:33;100348.31;;;14.10;100.00
28630;BME280;15817;42.130;24.762;2023-05-09T04:39:04;100348.44;;;14.01;100.00
28630;BME280;15817;42.130;24.762;2023-05-09T04:41:39;100346.66;;;14.00;100.00
28630;BME280;15817;42.130;24.762;2023-05-09T04:48:07;100352.03;;;13.97;100.00
28630;BME280;15817;42.130;24.762;2023-05-09T04:50:40;100353.81;;;13.97;100.00
28630;BME280;15817;42.130;24.762;2023-05-09T05:00:58;100354.81;;;13.91;100.00
28630;BME280;15817;42.130;24.762;2023-05-09T05:06:51;100364.72;;;13.80;100.00
28630;BME280;15817;42.130;24.762;2023-05-09T05:09:25;100362.00;;;13.85;100.00
28630;BME280;15817;42.130;24.762;2023-05-09T05:11:54;100366.47;;;13.84;100.00
28630;BME280;15817;42.130;24.762;2023-05-09T05:14:28;100375.44;;;13.78;100.00
28630;BME280;15817;42.130;24.762;2023-05-09T05:17:22;100370.97;;;13.82;100.00
28630;BME280;15817;42.130;24.762;2023-05-09T05:19:54;100365.84;;;13.59;100.00
28630;BME280;15817;42.130;24.762;2023-05-09T05:22:20;100363.22;;;13.53;100.00
28630;BME280;15817;42.130;24.762;2023-05-09T05:24:56;100369.31;;;13.67;100.00
28630;BME280;15817;42.130;24.762;2023-05-09T05:27:33;100377.25;;;13.76;100.00
28630;BME280;15817;42.130;24.762;2023-05-09T05:30:25;100379.78;;;13.87;100.00
28630;BME280;15817;42.130;24.762;2023-05-09T05:32:56;100375.44;;;13.77;100.00
28630;BME280;15817;42.130;24.762;2023-05-09T05:35:35;100386.13;;;13.82;100.00
28630;BME280;15817;42.130;24.762;2023-05-09T05:38:01;100382.56;;;13.80;100.00
28630;BME280;15817;42.130;24.762;2023-05-09T05:40:29;100376.34;;;13.76;100.00
28630;BME280;15817;42.130;24.762;2023-05-09T05:42:59;100387.03;;;13.79;100.00
28630;BME280;15817;42.130;24.762;2023-05-09T05:45:29;100379.97;;;13.72;100.00
28630;BME280;15817;42.130;24.762;2023-05-09T05:47:57;100377.44;;;13.61;100.00
28630;BME280;15817;42.130;24.762;2023-05-09T05:50:27;100394.16;;;13.77;100.00
28630;BME280;15817;42.130;24.762;2023-05-09T05:53:16;100388.81;;;13.77;100.00
28630;BME280;15817;42.130;24.762;2023-05-09T05:55:45;100387.91;;;13.80;100.00
28630;BME280;15817;42.130;24.762;2023-05-09T05:58:14;100387.94;;;13.76;100.00
28630;BME280;15817;42.130;24.762;2023-05-09T06:00:53;100381.69;;;13.77;100.00
28630;BME280;15817;42.130;24.762;2023-05-09T06:03:22;100384.34;;;13.81;100.00
28630;BME280;15817;42.130;24.762;2023-05-09T06:05:56;100385.16;;;13.86;100.00
28630;BME280;15817;42.130;24.762;2023-05-09T06:08:36;100383.47;;;13.78;100.00
28630;BME280;15817;42.130;24.762;2023-05-09T06:11:23;100394.19;;;13.75;100.00
28630;BME280;15817;42.130;24.762;2023-05-09T06:13:49;100383.72;;;13.53;100.00
28630;BME280;15817;42.130;24.762;2023-05-09T06:16:16;100390.91;;;13.49;100.00
28630;BME280;15817;42.130;24.762;2023-05-09T06:18:54;100407.66;;;13.65;100.00
28630;BME280;15817;42.130;24.762;2023-05-09T06:21:20;100390.72;;;13.67;100.00
28630;BME280;15817;42.130;24.762;2023-05-09T06:23:58;100391.59;;;13.68;100.00
28630;BME280;15817;42.130;24.762;2023-05-09T06:26:29;100384.50;;;13.65;100.00
28630;BME280;15817;42.130;24.762;2023-05-09T06:28:55;100390.63;;;13.75;100.00
28630;BME280;15817;42.130;24.762;2023-05-09T06:31:23;100384.47;;;13.70;100.00
28630;BME280;15817;42.130;24.762;2023-05-09T06:34:08;100391.56;;;13.72;100.00
28630;BME280;15817;42.130;24.762;2023-05-09T06:36:34;100393.28;;;13.78;100.00
28630;BME280;15817;42.130;24.762;2023-05-09T06:39:03;100379.91;;;13.78;100.00
28630;BME280;15817;42.130;24.762;2023-05-09T06:41:29;100383.47;;;13.78;100.00
28630;BME280;15817;42.130;24.762;2023-05-09T06:44:02;100383.47;;;13.77;100.00
28630;BME280;15817;42.130;24.762;2023-05-09T06:46:38;100382.59;;;13.76;100.00
28630;BME280;15817;42.130;24.762;2023-05-09T06:49:11;100378.19;;;13.72;100.00
28630;BME280;15817;42.130;24.762;2023-05-09T06:52:09;100377.34;;;13.67;100.00
28630;BME280;15817;42.130;24.762;2023-05-09T06:54:37;100384.56;;;13.59;100.00
28630;BME280;15817;42.130;24.762;2023-05-09T06:57:14;100404.97;;;13.69;100.00
28630;BME280;15817;42.130;24.762;2023-05-09T07:08:22;100411.25;;;13.62;100.00
28630;BME280;15817;42.130;24.762;2023-05-09T07:15:21;100399.63;;;13.66;100.00
28630;BME280;15817;42.130;24.762;2023-05-09T07:18:24;100420.97;;;13.72;100.00
28630;BME280;15817;42.130;24.762;2023-05-09T07:45:27;100405.75;;;13.77;100.00
28630;BME280;15817;42.130;24.762;2023-05-09T07:49:22;100422.78;;;13.69;100.00
28630;BME280;15817;42.130;24.762;2023-05-09T07:52:47;100404.03;;;13.72;100.00
28630;BME280;15817;42.130;24.762;2023-05-09T07:55:42;100414.78;;;13.67;100.00
28630;BME280;15817;42.130;24.762;2023-05-09T07:58:37;100415.66;;;13.69;100.00
28630;BME280;15817;42.130;24.762;2023-05-09T08:01:38;100419.22;;;13.67;100.00
28630;BME280;15817;42.130;24.762;2023-05-09T08:04:22;100417.38;;;13.73;100.00
28630;BME280;15817;42.130;24.762;2023-05-09T08:10:38;100412.06;;;13.70;100.00
28630;BME280;15817;42.130;24.762;2023-05-09T08:16:33;100410.22;;;13.75;100.00
28630;BME280;15817;42.130;24.762;2023-05-09T08:19:13;100408.44;;;13.74;100.00
28630;BME280;15817;42.130;24.762;2023-05-09T08:21:57;100415.59;;;13.74;100.00
28630;BME280;15817;42.130;24.762;2023-05-09T08:24:38;100413.78;;;13.74;100.00
28630;BME280;15817;42.130;24.762;2023-05-09T08:27:10;100411.19;;;13.68;100.00
28630;BME280;15817;42.130;24.762;2023-05-09T08:29:51;100407.63;;;13.69;100.00
28630;BME280;15817;42.130;24.762;2023-05-09T08:32:16;100422.69;;;13.76;100.00
28630;BME280;15817;42.130;24.762;2023-05-09T08:34:47;100421.69;;;13.85;100.00
28630;BME280;15817;42.130;24.762;2023-05-09T08:37:24;100417.25;;;13.86;100.00
28630;BME280;15817;42.130;24.762;2023-05-09T08:39:55;100404.81;;;13.83;100.00
28630;BME280;15817;42.130;24.762;2023-05-09T08:42:23;100416.41;;;13.84;100.00
28630;BME280;15817;42.130;24.762;2023-05-09T08:44:50;100413.66;;;13.87;100.00
28630;BME280;15817;42.130;24.762;2023-05-09T08:47:25;100419.00;;;13.90;100.00
28630;BME280;15817;42.130;24.762;2023-05-09T08:49:54;100407.44;;;13.85;100.00
28630;BME280;15817;42.130;24.762;2023-05-09T08:52:31;100415.50;;;13.83;100.00
28630;BME280;15817;42.130;24.762;2023-05-09T08:55:20;100419.03;;;13.85;100.00
28630;BME280;15817;42.130;24.762;2023-05-09T08:57:50;100416.41;;;13.82;100.00
28630;BME280;15817;42.130;24.762;2023-05-09T09:00:25;100419.03;;;13.85;100.00
28630;BME280;15817;42.130;24.762;2023-05-09T09:03:01;100427.03;;;13.88;100.00
28630;BME280;15817;42.130;24.762;2023-05-09T09:05:32;100423.50;;;13.85;100.00
28630;BME280;15817;42.130;24.762;2023-05-09T09:08:02;100419.09;;;13.82;100.00
28630;BME280;15817;42.130;24.762;2023-05-09T09:10:34;100414.66;;;13.78;100.00
28630;BME280;15817;42.130;24.762;2023-05-09T09:13:05;100421.88;;;13.71;100.00
28630;BME280;15817;42.130;24.762;2023-05-09T09:15:35;100410.28;;;13.72;100.00
28630;BME280;15817;42.130;24.762;2023-05-09T09:18:15;100422.69;;;13.76;100.00
28630;BME280;15817;42.130;24.762;2023-05-09T09:20:57;100414.66;;;13.78;100.00
28630;BME280;15817;42.130;24.762;2023-05-09T09:23:25;100409.34;;;13.73;100.00
28630;BME280;15817;42.130;24.762;2023-05-09T09:25:59;100409.31;;;13.80;100.00
28630;BME280;15817;42.130;24.762;2023-05-09T09:28:25;100410.34;;;13.62;100.00
28630;BME280;15817;42.130;24.762;2023-05-09T09:30:56;100421.00;;;13.69;100.00
28630;BME280;15817;42.130;24.762;2023-05-09T09:33:24;100414.75;;;13.70;100.00
28630;BME280;15817;42.130;24.762;2023-05-09T09:35:51;100411.19;;;13.68;100.00
28630;BME280;15817;42.130;24.762;2023-05-09T09:38:19;100415.53;;;13.78;100.00
28630;BME280;15817;42.130;24.762;2023-05-09T09:40:53;100415.47;;;13.85;100.00
28630;BME280;15817;42.130;24.762;2023-05-09T09:43:26;100411.91;;;13.86;100.00
28630;BME280;15817;42.130;24.762;2023-05-09T09:45:52;100404.03;;;13.72;100.00
28630;BME280;15817;42.130;24.762;2023-05-09T09:48:38;100421.91;;;13.65;100.00
28630;BME280;15817;42.130;24.762;2023-05-09T09:51:08;100413.97;;;13.59;100.00
28630;BME280;15817;42.130;24.762;2023-05-09T09:53:40;100409.53;;;13.58;100.00
28630;BME280;15817;42.130;24.762;2023-05-09T09:56:07;100404.84;;;13.78;100.00
28630;BME280;15817;42.130;24.762;2023-05-09T09:58:39;100403.84;;;13.89;100.00
28630;BME280;15817;42.130;24.762;2023-05-09T10:01:15;100401.19;;;13.86;100.00
28630;BME280;15817;42.130;24.762;2023-05-09T10:03:48;100407.41;;;13.91;100.00
28630;BME280;15817;42.130;24.762;2023-05-09T10:06:26;100401.16;;;13.90;100.00
28630;BME280;15817;42.130;24.762;2023-05-09T10:08:52;100397.50;;;13.97;100.00
28630;BME280;15817;42.130;24.762;2023-05-09T10:12:11;100406.53;;;13.89;100.00
28630;BME280;15817;42.130;24.762;2023-05-09T10:14:58;100400.22;;;13.96;100.00
28630;BME280;15817;42.130;24.762;2023-05-09T10:18:00;100411.63;;;14.08;100.00
28630;BME280;15817;42.130;24.762;2023-05-09T10:20:40;100406.38;;;14.04;100.00
28630;BME280;15817;42.130;24.762;2023-05-09T10:23:14;100405.59;;;13.93;100.00
28630;BME280;15817;42.130;24.762;2023-05-09T10:26:14;100400.25;;;13.93;100.00
28630;BME280;15817;42.130;24.762;2023-05-09T10:29:06;100402.03;;;13.94;100.00
28630;BME280;15817;42.130;24.762;2023-05-09T10:35:48;100411.75;;;14.01;100.00
28630;BME280;15817;42.130;24.762;2023-05-09T10:46:11;100413.59;;;13.96;100.00
28630;BME280;15817;42.130;24.762;2023-05-09T10:59:55;100417.19;;;13.93;100.00
28630;BME280;15817;42.130;24.762;2023-05-09T11:03:06;100412.66;;;13.98;100.00
28630;BME280;15817;42.130;24.762;2023-05-09T11:23:24;100397.31;;;14.16;100.00
28630;BME280;15817;42.130;24.762;2023-05-09T11:26:08;100394.66;;;14.12;100.00
28630;BME280;15817;42.130;24.762;2023-05-09T11:32:15;100397.22;;;14.22;100.00
28630;BME280;15817;42.130;24.762;2023-05-09T11:34:48;100390.91;;;14.29;100.00
28630;BME280;15817;42.130;24.762;2023-05-09T11:37:17;100388.28;;;14.23;100.00
28630;BME280;15817;42.130;24.762;2023-05-09T11:40:17;100391.03;;;14.18;100.00
28630;BME280;15817;42.130;24.762;2023-05-09T11:46:34;100392.56;;;14.40;100.00
28630;BME280;15817;42.130;24.762;2023-05-09T11:49:12;100399.69;;;14.38;100.00
28630;BME280;15817;42.130;24.762;2023-05-09T11:51:48;100395.19;;;14.43;100.00
28630;BME280;15817;42.130;24.762;2023-05-09T11:54:22;100395.13;;;14.48;100.00
28630;BME280;15817;42.130;24.762;2023-05-09T11:56:59;100400.44;;;14.53;100.00
28630;BME280;15817;42.130;24.762;2023-05-09T11:59:30;100390.66;;;14.48;100.00
28630;BME280;15817;42.130;24.762;2023-05-09T12:02:10;100383.66;;;14.40;100.00
28630;BME280;15817;42.130;24.762;2023-05-09T12:07:29;100389.81;;;14.45;100.00
28630;BME280;15817;42.130;24.762;2023-05-09T12:10:35;100391.59;;;14.44;100.00
28630;BME280;15817;42.130;24.762;2023-05-09T12:13:24;100383.84;;;14.22;100.00
28630;BME280;15817;42.130;24.762;2023-05-09T12:16:10;100386.47;;;14.26;100.00
28630;BME280;15817;42.130;24.762;2023-05-09T12:19:00;100390.84;;;14.32;100.00
28630;BME280;15817;42.130;24.762;2023-05-09T12:32:51;100374.84;;;14.29;100.00
28630;BME280;15817;42.130;24.762;2023-05-09T12:35:36;100369.53;;;14.27;100.00
28630;BME280;15817;42.130;24.762;2023-05-09T12:38:37;100356.91;;;14.35;100.00
28630;BME280;15817;42.130;24.762;2023-05-09T12:41:31;100355.03;;;14.43;100.00
28630;BME280;15817;42.130;24.762;2023-05-09T12:44:58;100354.94;;;14.53;100.00
28630;BME280;15817;42.130;24.762;2023-05-09T12:51:10;100361.25;;;14.45;100.00
28630;BME280;15817;42.130;24.762;2023-05-09T12:54:06;100351.44;;;14.46;100.00
28630;BME280;15817;42.130;24.762;2023-05-09T13:00:45;100359.38;;;14.54;100.00
28630;BME280;15817;42.130;24.762;2023-05-09T13:03:35;100342.63;;;14.39;100.00
28630;BME280;15817;42.130;24.762;2023-05-09T13:06:50;100347.84;;;14.50;100.00
28630;BME280;15817;42.130;24.762;2023-05-09T13:10:18;100339.69;;;14.58;100.00
28630;BME280;15817;42.130;24.762;2023-05-09T13:37:01;100321.97;;;14.47;100.00
28630;BME280;15817;42.130;24.762;2023-05-09T13:43:25;100325.56;;;14.46;100.00
28630;BME280;15817;42.130;24.762;2023-05-09T13:46:54;100325.69;;;14.36;100.00
28630;BME280;15817;42.130;24.762;2023-05-09T13:57:41;100345.16;;;14.48;100.00
28630;BME280;15817;42.130;24.762;2023-05-09T14:01:56;100324.78;;;14.37;100.00
28630;BME280;15817;42.130;24.762;2023-05-09T14:16:45;100329.38;;;14.27;100.00
28630;BME280;15817;42.130;24.762;2023-05-09T14:33:30;100339.94;;;14.36;100.00
28630;BME280;15817;42.130;24.762;2023-05-09T15:19:20;100343.50;;;14.41;100.00
28630;BME280;15817;42.130;24.762;2023-05-09T15:36:45;100335.66;;;14.25;100.00
28630;BME280;15817;42.130;24.762;2023-05-09T15:39:35;100337.69;;;14.07;100.00
28630;BME280;15817;42.130;24.762;2023-05-09T15:42:20;100334.16;;;14.04;100.00
28630;BME280;15817;42.130;24.762;2023-05-09T15:45:13;100341.28;;;14.05;100.00
28630;BME280;15817;42.130;24.762;2023-05-09T16:00:03;100336.66;;;14.18;100.00
28630;BME280;15817;42.130;24.762;2023-05-09T16:10:38;100344.00;;;13.99;100.00
28630;BME280;15817;42.130;24.762;2023-05-09T16:13:32;100333.31;;;13.97;100.00
28630;BME280;15817;42.130;24.762;2023-05-09T16:20:50;100339.53;;;14.01;100.00
28630;BME280;15817;42.130;24.762;2023-05-09T16:23:37;100344.91;;;13.98;100.00
28630;BME280;15817;42.130;24.762;2023-05-09T16:31:27;100349.44;;;13.93;100.00
28630;BME280;15817;42.130;24.762;2023-05-09T16:34:23;100344.09;;;13.93;100.00
28630;BME280;15817;42.130;24.762;2023-05-09T16:40:23;100337.00;;;13.87;100.00
28630;BME280;15817;42.130;24.762;2023-05-09T16:43:22;100347.69;;;13.90;100.00
28630;BME280;15817;42.130;24.762;2023-05-09T16:46:38;100335.25;;;13.86;100.00
28630;BME280;15817;42.130;24.762;2023-05-09T16:49:16;100338.78;;;13.88;100.00
28630;BME280;15817;42.130;24.762;2023-05-09T16:51:57;100353.94;;;13.89;100.00
28630;BME280;15817;42.130;24.762;2023-05-09T16:54:42;100356.63;;;13.88;100.00
28630;BME280;15817;42.130;24.762;2023-05-09T16:57:24;100355.75;;;13.86;100.00
28630;BME280;15817;42.130;24.762;2023-05-09T17:01:30;100360.19;;;13.87;100.00
28630;BME280;15817;42.130;24.762;2023-05-09T17:06:57;100349.56;;;13.82;100.00
28630;BME280;15817;42.130;24.762;2023-05-09T17:09:44;100358.50;;;13.80;100.00
28630;BME280;15817;42.130;24.762;2023-05-09T17:12:30;100358.50;;;13.78;100.00
28630;BME280;15817;42.130;24.762;2023-05-09T17:15:31;100361.19;;;13.76;100.00
28630;BME280;15817;42.130;24.762;2023-05-09T17:18:15;100374.53;;;13.80;100.00
28630;BME280;15817;42.130;24.762;2023-05-09T17:20:45;100356.75;;;13.77;100.00
28630;BME280;15817;42.130;24.762;2023-05-09T17:23:17;100360.31;;;13.76;100.00
28630;BME280;15817;42.130;24.762;2023-05-09T17:26:21;100370.97;;;13.81;100.00
28630;BME280;15817;42.130;24.762;2023-05-09T17:29:19;100372.78;;;13.77;100.00
28630;BME280;15817;42.130;24.762;2023-05-09T17:32:12;100367.53;;;13.68;100.00
28630;BME280;15817;42.130;24.762;2023-05-09T17:34:47;100358.66;;;13.63;100.00
28630;BME280;15817;42.130;24.762;2023-05-09T17:37:17;100360.44;;;13.65;100.00
28630;BME280;15817;42.130;24.762;2023-05-09T17:39:48;100358.63;;;13.69;100.00
28630;BME280;15817;42.130;24.762;2023-05-09T17:42:22;100362.19;;;13.69;100.00
28630;BME280;15817;42.130;24.762;2023-05-09T17:48:01;100366.63;;;13.69;100.00
28630;BME280;15817;42.130;24.762;2023-05-09T17:50:32;100373.69;;;13.73;100.00
28630;BME280;15817;42.130;24.762;2023-05-09T17:53:24;100380.81;;;13.75;100.00
28630;BME280;15817;42.130;24.762;2023-05-09T17:55:54;100368.44;;;13.68;100.00
28630;BME280;15817;42.130;24.762;2023-05-09T17:58:24;100365.75;;;13.67;100.00
28630;BME280;15817;42.130;24.762;2023-05-09T18:01:05;100363.09;;;13.67;100.00
28630;BME280;15817;42.130;24.762;2023-05-09T18:04:02;100364.00;;;13.64;100.00
28630;BME280;15817;42.130;24.762;2023-05-09T18:06:59;100370.31;;;13.60;100.00
28630;BME280;15817;42.130;24.762;2023-05-09T18:09:54;100373.81;;;13.62;100.00
28630;BME280;15817;42.130;24.762;2023-05-09T18:12:29;100372.88;;;13.68;100.00
28630;BME280;15817;42.130;24.762;2023-05-09T18:15:29;100379.00;;;13.81;100.00
28630;BME280;15817;42.130;24.762;2023-05-09T18:22:59;100372.88;;;13.68;100.00
28630;BME280;15817;42.130;24.762;2023-05-09T18:26:13;100372.91;;;13.66;100.00
28630;BME280;15817;42.130;24.762;2023-05-09T18:29:27;100375.59;;;13.65;100.00
28630;BME280;15817;42.130;24.762;2023-05-09T18:32:26;100375.66;;;13.60;100.00
28630;BME280;15817;42.130;24.762;2023-05-09T18:35:18;100382.78;;;13.60;100.00
28630;BME280;15817;42.130;24.762;2023-05-09T18:42:04;100387.28;;;13.55;100.00
28630;BME280;15817;42.130;24.762;2023-05-09T18:44:39;100383.72;;;13.53;100.00
28630;BME280;15817;42.130;24.762;2023-05-09T18:54:13;100391.72;;;13.57;100.00
28630;BME280;15817;42.130;24.762;2023-05-09T19:00:28;100400.72;;;13.44;100.00
28630;BME280;15817;42.130;24.762;2023-05-09T19:03:20;100402.53;;;13.44;100.00
28630;BME280;15817;42.130;24.762;2023-05-09T19:06:35;100393.59;;;13.45;100.00
28630;BME280;15817;42.130;24.762;2023-05-09T19:10:04;100399.84;;;13.44;100.00
28630;BME280;15817;42.130;24.762;2023-05-09T19:12:39;100399.88;;;13.40;100.00
28630;BME280;15817;42.130;24.762;2023-05-09T19:15:26;100399.03;;;13.37;100.00
28630;BME280;15817;42.130;24.762;2023-05-09T19:18:06;100391.06;;;13.31;100.00
28630;BME280;15817;42.130;24.762;2023-05-09T19:20:44;100397.28;;;13.33;100.00
28630;BME280;15817;42.130;24.762;2023-05-09T19:23:11;100388.34;;;13.37;100.00
28630;BME280;15817;42.130;24.762;2023-05-09T19:25:45;100390.06;;;13.39;100.00
28630;BME280;15817;42.130;24.762;2023-05-09T19:28:25;100405.19;;;13.44;100.00
28630;BME280;15817;42.130;24.762;2023-05-09T19:34:37;100396.31;;;13.40;100.00
28630;BME280;15817;42.130;24.762;2023-05-09T19:38:03;100405.19;;;13.45;100.00
28630;BME280;15817;42.130;24.762;2023-05-09T19:44:36;100408.81;;;13.38;100.00
28630;BME280;15817;42.130;24.762;2023-05-09T19:47:25;100407.97;;;13.33;100.00
28630;BME280;15817;42.130;24.762;2023-05-09T19:49:56;100411.44;;;13.44;100.00
28630;BME280;15817;42.130;24.762;2023-05-09T19:52:31;100399.03;;;13.35;100.00